sensor_id;sensor_type;location;lat;lon;timestamp;temperature;humidity
65826;DHT22;52586;-43.152;172.732;2022-09-02T00:00:06;18.80;53.00
65826;DHT22;52586;-43.152;172.732;2022-09-02T00:02:38;18.80;53.10
65826;DHT22;52586;-43.152;172.732;2022-09-02T00:05:10;18.90;53.20
65826;DHT22;52586;-43.152;172.732;2022-09-02T00:07:41;18.80;53.00
65826;DHT22;52586;-43.152;172.732;2022-09-02T00:10:12;18.90;53.10
65826;DHT22;52586;-43.152;172.732;2022-09-02T00:12:42;18.90;53.00
65826;DHT22;52586;-43.152;172.732;2022-09-02T00:15:13;18.90;53.10
65826;DHT22;52586;-43.152;172.732;2022-09-02T00:17:44;18.90;53.00
65826;DHT22;52586;-43.152;172.732;2022-09-02T00:20:17;18.90;53.00
65826;DHT22;52586;-43.152;172.732;2022-09-02T00:22:48;18.90;53.10
65826;DHT22;52586;-43.152;172.732;2022-09-02T00:25:18;18.90;53.10
65826;DHT22;52586;-43.152;172.732;2022-09-02T00:27:49;18.90;53.10
65826;DHT22;52586;-43.152;172.732;2022-09-02T00:30:20;19.00;53.10
65826;DHT22;52586;-43.152;172.732;2022-09-02T00:32:51;19.00;53.10
65826;DHT22;52586;-43.152;172.732;2022-09-02T00:35:23;19.00;53.10
65826;DHT22;52586;-43.152;172.732;2022-09-02T00:37:54;19.00;53.10
65826;DHT22;52586;-43.152;172.732;2022-09-02T00:40:25;19.00;53.10
65826;DHT22;52586;-43.152;172.732;2022-09-02T00:42:57;19.00;53.10
65826;DHT22;52586;-43.152;172.732;2022-09-02T00:45:27;19.00;53.00
65826;DHT22;52586;-43.152;172.732;2022-09-02T00:47:58;19.00;53.00
65826;DHT22;52586;-43.152;172.732;2022-09-02T00:50:33;19.00;53.00
65826;DHT22;52586;-43.152;172.732;2022-09-02T00:53:07;19.00;53.00
65826;DHT22;52586;-43.152;172.732;2022-09-02T01:19:05;19.10;52.90
65826;DHT22;52586;-43.152;172.732;2022-09-02T01:21:51;19.10;52.90
65826;DHT22;52586;-43.152;172.732;2022-09-02T01:24:29;19.10;52.90
65826;DHT22;52586;-43.152;172.732;2022-09-02T01:27:05;19.10;52.80
65826;DHT22;52586;-43.152;172.732;2022-09-02T01:29:42;19.10;52.80
65826;DHT22;52586;-43.152;172.732;2022-09-02T01:32:13;19.20;52.90
65826;DHT22;52586;-43.152;172.732;2022-09-02T01:34:44;19.20;52.90
65826;DHT22;52586;-43.152;172.732;2022-09-02T01:37:16;19.20;52.90
65826;DHT22;52586;-43.152;172.732;2022-09-02T01:39:47;19.20;52.90
65826;DHT22;52586;-43.152;172.732;2022-09-02T01:42:19;19.20;52.90
65826;DHT22;52586;-43.152;172.732;2022-09-02T01:44:50;19.20;52.90
65826;DHT22;52586;-43.152;172.732;2022-09-02T01:47:23;19.20;52.90
65826;DHT22;52586;-43.152;172.732;2022-09-02T01:49:53;19.20;52.90
65826;DHT22;52586;-43.152;172.732;2022-09-02T01:52:27;19.20;52.90
65826;DHT22;52586;-43.152;172.732;2022-09-02T01:54:58;19.20;52.90
65826;DHT22;52586;-43.152;172.732;2022-09-02T01:57:31;19.20;52.90
65826;DHT22;52586;-43.152;172.732;2022-09-02T02:00:03;19.20;52.90
65826;DHT22;52586;-43.152;172.732;2022-09-02T02:02:34;19.30;53.00
65826;DHT22;52586;-43.152;172.732;2022-09-02T02:05:06;19.30;53.00
65826;DHT22;52586;-43.152;172.732;2022-09-02T02:07:38;19.30;52.90
65826;DHT22;52586;-43.152;172.732;2022-09-02T02:10:10;19.30;52.90
65826;DHT22;52586;-43.152;172.732;2022-09-02T02:12:41;19.30;52.90
65826;DHT22;52586;-43.152;172.732;2022-09-02T02:15:14;19.30;52.90
65826;DHT22;52586;-43.152;172.732;2022-09-02T02:17:45;19.30;52.80
65826;DHT22;52586;-43.152;172.732;2022-09-02T02:20:17;19.30;52.80
65826;DHT22;52586;-43.152;172.732;2022-09-02T02:22:50;19.30;52.80
65826;DHT22;52586;-43.152;172.732;2022-09-02T02:25:21;19.30;52.80
65826;DHT22;52586;-43.152;172.732;2022-09-02T02:27:52;19.30;52.80
65826;DHT22;52586;-43.152;172.732;2022-09-02T02:30:23;19.30;52.80
65826;DHT22;52586;-43.152;172.732;2022-09-02T02:32:53;19.30;52.80
65826;DHT22;52586;-43.152;172.732;2022-09-02T02:35:24;19.30;52.80
65826;DHT22;52586;-43.152;172.732;2022-09-02T02:37:57;19.30;52.70
65826;DHT22;52586;-43.152;172.732;2022-09-02T02:40:27;19.30;52.70
65826;DHT22;52586;-43.152;172.732;2022-09-02T02:42:58;19.30;52.70
65826;DHT22;52586;-43.152;172.732;2022-09-02T02:45:30;19.30;52.70
65826;DHT22;52586;-43.152;172.732;2022-09-02T02:48:02;19.30;52.70
65826;DHT22;52586;-43.152;172.732;2022-09-02T02:50:33;19.30;52.70
65826;DHT22;52586;-43.152;172.732;2022-09-02T02:53:06;19.30;52.70
65826;DHT22;52586;-43.152;172.732;2022-09-02T02:55:36;19.30;52.70
65826;DHT22;52586;-43.152;172.732;2022-09-02T02:58:07;19.40;52.70
65826;DHT22;52586;-43.152;172.732;2022-09-02T03:00:38;19.40;52.60
65826;DHT22;52586;-43.152;172.732;2022-09-02T03:03:11;19.40;52.50
65826;DHT22;52586;-43.152;172.732;2022-09-02T03:05:41;19.40;52.60
65826;DHT22;52586;-43.152;172.732;2022-09-02T03:08:15;19.40;52.50
65826;DHT22;52586;-43.152;172.732;2022-09-02T03:10:48;19.40;52.50
65826;DHT22;52586;-43.152;172.732;2022-09-02T03:13:21;19.40;53.10
65826;DHT22;52586;-43.152;172.732;2022-09-02T03:15:52;19.40;52.40
65826;DHT22;52586;-43.152;172.732;2022-09-02T03:18:23;19.40;52.40
65826;DHT22;52586;-43.152;172.732;2022-09-02T03:20:53;19.40;52.40
65826;DHT22;52586;-43.152;172.732;2022-09-02T03:23:26;19.40;52.40
65826;DHT22;52586;-43.152;172.732;2022-09-02T03:25:57;19.40;52.40
65826;DHT22;52586;-43.152;172.732;2022-09-02T03:28:28;19.40;52.40
65826;DHT22;52586;-43.152;172.732;2022-09-02T03:30:59;19.40;52.40
65826;DHT22;52586;-43.152;172.732;2022-09-02T03:33:30;19.40;52.40
65826;DHT22;52586;-43.152;172.732;2022-09-02T03:36:01;19.40;52.40
65826;DHT22;52586;-43.152;172.732;2022-09-02T03:38:34;19.40;52.40
65826;DHT22;52586;-43.152;172.732;2022-09-02T03:41:05;19.40;52.40
65826;DHT22;52586;-43.152;172.732;2022-09-02T03:43:36;19.40;52.40
65826;DHT22;52586;-43.152;172.732;2022-09-02T03:46:07;19.40;52.40
65826;DHT22;52586;-43.152;172.732;2022-09-02T03:48:38;19.40;52.40
65826;DHT22;52586;-43.152;172.732;2022-09-02T03:51:08;19.40;52.40
65826;DHT22;52586;-43.152;172.732;2022-09-02T03:53:41;19.40;52.30
65826;DHT22;52586;-43.152;172.732;2022-09-02T03:56:13;19.40;52.30
65826;DHT22;52586;-43.152;172.732;2022-09-02T03:58:46;19.40;52.40
65826;DHT22;52586;-43.152;172.732;2022-09-02T04:01:18;19.40;52.30
65826;DHT22;52586;-43.152;172.732;2022-09-02T04:03:49;19.40;52.30
65826;DHT22;52586;-43.152;172.732;2022-09-02T04:06:22;19.40;52.20
65826;DHT22;52586;-43.152;172.732;2022-09-02T04:08:55;19.40;52.30
65826;DHT22;52586;-43.152;172.732;2022-09-02T04:11:25;19.40;52.20
65826;DHT22;52586;-43.152;172.732;2022-09-02T04:13:57;19.40;52.10
65826;DHT22;52586;-43.152;172.732;2022-09-02T04:16:27;19.40;52.10
65826;DHT22;52586;-43.152;172.732;2022-09-02T04:18:59;19.40;52.10
65826;DHT22;52586;-43.152;172.732;2022-09-02T04:21:32;19.40;52.10
65826;DHT22;52586;-43.152;172.732;2022-09-02T04:24:06;19.40;52.10
65826;DHT22;52586;-43.152;172.732;2022-09-02T04:26:38;19.40;52.20
65826;DHT22;52586;-43.152;172.732;2022-09-02T04:29:08;19.40;52.10
65826;DHT22;52586;-43.152;172.732;2022-09-02T04:31:39;19.40;52.20
65826;DHT22;52586;-43.152;172.732;2022-09-02T04:34:10;19.40;52.10
65826;DHT22;52586;-43.152;172.732;2022-09-02T04:36:41;19.40;52.00
65826;DHT22;52586;-43.152;172.732;2022-09-02T04:39:13;19.40;52.00
65826;DHT22;52586;-43.152;172.732;2022-09-02T04:41:44;19.40;52.00
65826;DHT22;52586;-43.152;172.732;2022-09-02T04:44:15;19.40;52.00
65826;DHT22;52586;-43.152;172.732;2022-09-02T04:46:45;19.40;52.00
65826;DHT22;52586;-43.152;172.732;2022-09-02T04:49:16;19.40;52.00
65826;DHT22;52586;-43.152;172.732;2022-09-02T04:51:47;19.40;52.00
65826;DHT22;52586;-43.152;172.732;2022-09-02T04:54:20;19.40;52.00
65826;DHT22;52586;-43.152;172.732;2022-09-02T04:56:50;19.40;52.00
65826;DHT22;52586;-43.152;172.732;2022-09-02T04:59:21;19.40;52.00
65826;DHT22;52586;-43.152;172.732;2022-09-02T05:01:52;19.40;52.00
65826;DHT22;52586;-43.152;172.732;2022-09-02T05:04:23;19.40;51.90
65826;DHT22;52586;-43.152;172.732;2022-09-02T05:06:53;19.40;51.90
65826;DHT22;52586;-43.152;172.732;2022-09-02T05:09:29;19.40;51.80
65826;DHT22;52586;-43.152;172.732;2022-09-02T05:12:00;19.40;51.80
65826;DHT22;52586;-43.152;172.732;2022-09-02T05:14:31;19.40;51.90
65826;DHT22;52586;-43.152;172.732;2022-09-02T05:17:01;19.40;51.90
65826;DHT22;52586;-43.152;172.732;2022-09-02T05:19:32;19.40;51.90
65826;DHT22;52586;-43.152;172.732;2022-09-02T05:22:03;19.40;51.80
65826;DHT22;52586;-43.152;172.732;2022-09-02T05:24:35;19.40;51.80
65826;DHT22;52586;-43.152;172.732;2022-09-02T05:27:06;19.40;51.80
65826;DHT22;52586;-43.152;172.732;2022-09-02T05:29:37;19.40;52.50
65826;DHT22;52586;-43.152;172.732;2022-09-02T05:32:08;19.40;51.90
65826;DHT22;52586;-43.152;172.732;2022-09-02T05:34:38;19.40;51.90
65826;DHT22;52586;-43.152;172.732;2022-09-02T05:37:09;19.40;51.80
65826;DHT22;52586;-43.152;172.732;2022-09-02T05:39:42;19.40;51.80
65826;DHT22;52586;-43.152;172.732;2022-09-02T05:42:12;19.50;51.70
65826;DHT22;52586;-43.152;172.732;2022-09-02T05:44:43;19.50;51.70
65826;DHT22;52586;-43.152;172.732;2022-09-02T05:47:14;19.50;51.70
65826;DHT22;52586;-43.152;172.732;2022-09-02T05:49:45;19.50;51.70
65826;DHT22;52586;-43.152;172.732;2022-09-02T05:52:18;19.40;51.60
65826;DHT22;52586;-43.152;172.732;2022-09-02T05:54:51;19.50;51.80
65826;DHT22;52586;-43.152;172.732;2022-09-02T05:57:22;19.40;51.80
65826;DHT22;52586;-43.152;172.732;2022-09-02T05:59:53;19.50;51.80
65826;DHT22;52586;-43.152;172.732;2022-09-02T06:02:24;19.50;51.70
65826;DHT22;52586;-43.152;172.732;2022-09-02T06:04:55;19.40;51.70
65826;DHT22;52586;-43.152;172.732;2022-09-02T06:07:26;19.50;51.70
65826;DHT22;52586;-43.152;172.732;2022-09-02T06:09:58;19.40;51.70
65826;DHT22;52586;-43.152;172.732;2022-09-02T06:12:29;19.50;51.70
65826;DHT22;52586;-43.152;172.732;2022-09-02T06:15:00;19.50;52.30
65826;DHT22;52586;-43.152;172.732;2022-09-02T06:17:31;19.50;51.70
65826;DHT22;52586;-43.152;172.732;2022-09-02T06:20:02;19.50;51.70
65826;DHT22;52586;-43.152;172.732;2022-09-02T06:22:32;19.40;51.60
65826;DHT22;52586;-43.152;172.732;2022-09-02T06:25:05;19.40;51.70
65826;DHT22;52586;-43.152;172.732;2022-09-02T06:27:37;19.40;51.70
65826;DHT22;52586;-43.152;172.732;2022-09-02T06:30:09;19.40;51.70
65826;DHT22;52586;-43.152;172.732;2022-09-02T06:32:40;19.40;51.80
65826;DHT22;52586;-43.152;172.732;2022-09-02T06:35:10;19.40;51.80
65826;DHT22;52586;-43.152;172.732;2022-09-02T06:37:41;19.40;51.80
65826;DHT22;52586;-43.152;172.732;2022-09-02T06:40:14;19.40;51.80
65826;DHT22;52586;-43.152;172.732;2022-09-02T06:42:46;19.40;51.70
65826;DHT22;52586;-43.152;172.732;2022-09-02T06:45:17;19.40;51.70
65826;DHT22;52586;-43.152;172.732;2022-09-02T06:47:47;19.40;51.70
65826;DHT22;52586;-43.152;172.732;2022-09-02T06:50:18;19.40;51.70
65826;DHT22;52586;-43.152;172.732;2022-09-02T06:52:49;19.40;51.70
65826;DHT22;52586;-43.152;172.732;2022-09-02T06:58:02;19.30;51.70
65826;DHT22;52586;-43.152;172.732;2022-09-02T07:00:33;19.30;51.70
65826;DHT22;52586;-43.152;172.732;2022-09-02T07:03:04;19.30;51.80
65826;DHT22;52586;-43.152;172.732;2022-09-02T07:06:02;19.30;51.70
65826;DHT22;52586;-43.152;172.732;2022-09-02T07:08:36;19.30;51.70
65826;DHT22;52586;-43.152;172.732;2022-09-02T07:11:14;19.30;51.70
65826;DHT22;52586;-43.152;172.732;2022-09-02T07:13:47;19.30;51.70
65826;DHT22;52586;-43.152;172.732;2022-09-02T07:16:18;19.30;51.70
65826;DHT22;52586;-43.152;172.732;2022-09-02T07:18:49;19.30;51.70
65826;DHT22;52586;-43.152;172.732;2022-09-02T07:21:19;19.30;51.80
65826;DHT22;52586;-43.152;172.732;2022-09-02T07:23:50;19.30;51.80
65826;DHT22;52586;-43.152;172.732;2022-09-02T07:26:21;19.30;51.90
65826;DHT22;52586;-43.152;172.732;2022-09-02T07:28:54;19.30;51.90
65826;DHT22;52586;-43.152;172.732;2022-09-02T07:31:25;19.30;52.00
65826;DHT22;52586;-43.152;172.732;2022-09-02T07:33:56;19.30;52.00
65826;DHT22;52586;-43.152;172.732;2022-09-02T07:36:27;19.30;52.00
65826;DHT22;52586;-43.152;172.732;2022-09-02T07:38:58;19.20;51.90
65826;DHT22;52586;-43.152;172.732;2022-09-02T07:41:28;19.30;52.50
65826;DHT22;52586;-43.152;172.732;2022-09-02T07:44:01;19.30;52.00
65826;DHT22;52586;-43.152;172.732;2022-09-02T07:46:32;19.20;51.90
65826;DHT22;52586;-43.152;172.732;2022-09-02T07:49:05;19.20;52.00
65826;DHT22;52586;-43.152;172.732;2022-09-02T07:51:39;19.20;52.00
65826;DHT22;52586;-43.152;172.732;2022-09-02T07:54:11;19.20;52.10
65826;DHT22;52586;-43.152;172.732;2022-09-02T08:56:17;18.90;52.50
65826;DHT22;52586;-43.152;172.732;2022-09-02T08:58:50;18.90;52.50
65826;DHT22;52586;-43.152;172.732;2022-09-02T09:01:30;18.90;52.60
65826;DHT22;52586;-43.152;172.732;2022-09-02T09:07:19;18.80;52.60
65826;DHT22;52586;-43.152;172.732;2022-09-02T09:10:05;18.80;52.50
65826;DHT22;52586;-43.152;172.732;2022-09-02T09:12:59;18.80;52.50
65826;DHT22;52586;-43.152;172.732;2022-09-02T09:15:41;18.80;52.50
65826;DHT22;52586;-43.152;172.732;2022-09-02T09:18:18;18.90;52.50
65826;DHT22;52586;-43.152;172.732;2022-09-02T09:20:49;18.80;52.50
65826;DHT22;52586;-43.152;172.732;2022-09-02T09:23:26;18.80;52.60
65826;DHT22;52586;-43.152;172.732;2022-09-02T09:26:07;18.80;52.60
65826;DHT22;52586;-43.152;172.732;2022-09-02T09:28:43;18.80;52.60
65826;DHT22;52586;-43.152;172.732;2022-09-02T09:31:16;18.70;52.60
65826;DHT22;52586;-43.152;172.732;2022-09-02T09:33:58;18.70;52.70
65826;DHT22;52586;-43.152;172.732;2022-09-02T09:36:48;18.70;52.70
65826;DHT22;52586;-43.152;172.732;2022-09-02T09:39:27;18.70;52.70
65826;DHT22;52586;-43.152;172.732;2022-09-02T09:41:59;18.70;52.60
65826;DHT22;52586;-43.152;172.732;2022-09-02T09:44:40;18.70;52.60
65826;DHT22;52586;-43.152;172.732;2022-09-02T09:47:14;18.70;52.60
65826;DHT22;52586;-43.152;172.732;2022-09-02T09:49:47;18.70;52.60
65826;DHT22;52586;-43.152;172.732;2022-09-02T09:52:26;18.70;52.60
65826;DHT22;52586;-43.152;172.732;2022-09-02T09:55:11;18.70;52.70
65826;DHT22;52586;-43.152;172.732;2022-09-02T09:57:43;18.70;52.70
65826;DHT22;52586;-43.152;172.732;2022-09-02T10:00:20;18.70;52.70
65826;DHT22;52586;-43.152;172.732;2022-09-02T10:02:54;18.70;52.80
65826;DHT22;52586;-43.152;172.732;2022-09-02T10:05:33;18.70;52.80
65826;DHT22;52586;-43.152;172.732;2022-09-02T10:08:17;18.70;52.70
65826;DHT22;52586;-43.152;172.732;2022-09-02T10:10:57;18.70;52.70
65826;DHT22;52586;-43.152;172.732;2022-09-02T10:13:30;18.70;52.70
65826;DHT22;52586;-43.152;172.732;2022-09-02T10:16:17;18.70;52.60
65826;DHT22;52586;-43.152;172.732;2022-09-02T10:18:52;18.70;52.70
65826;DHT22;52586;-43.152;172.732;2022-09-02T10:21:40;18.70;52.60
65826;DHT22;52586;-43.152;172.732;2022-09-02T10:24:22;18.60;52.70
65826;DHT22;52586;-43.152;172.732;2022-09-02T10:26:58;18.60;52.70
65826;DHT22;52586;-43.152;172.732;2022-09-02T10:32:39;18.60;52.80
65826;DHT22;52586;-43.152;172.732;2022-09-02T10:35:20;18.60;52.80
65826;DHT22;52586;-43.152;172.732;2022-09-02T10:38:05;18.60;52.80
65826;DHT22;52586;-43.152;172.732;2022-09-02T10:40:41;18.60;52.80
65826;DHT22;52586;-43.152;172.732;2022-09-02T10:43:26;18.60;52.80
65826;DHT22;52586;-43.152;172.732;2022-09-02T10:46:00;18.60;52.80
65826;DHT22;52586;-43.152;172.732;2022-09-02T10:48:43;18.60;52.80
65826;DHT22;52586;-43.152;172.732;2022-09-02T10:51:22;18.60;52.70
65826;DHT22;52586;-43.152;172.732;2022-09-02T10:54:08;18.60;52.70
65826;DHT22;52586;-43.152;172.732;2022-09-02T10:56:46;18.60;52.80
65826;DHT22;52586;-43.152;172.732;2022-09-02T10:59:23;18.60;52.80
65826;DHT22;52586;-43.152;172.732;2022-09-02T11:01:58;18.50;52.80
65826;DHT22;52586;-43.152;172.732;2022-09-02T11:04:36;18.50;52.90
65826;DHT22;52586;-43.152;172.732;2022-09-02T11:07:13;18.50;52.90
65826;DHT22;52586;-43.152;172.732;2022-09-02T11:09:49;18.50;52.90
65826;DHT22;52586;-43.152;172.732;2022-09-02T11:12:25;18.50;52.90
65826;DHT22;52586;-43.152;172.732;2022-09-02T11:15:05;18.50;52.90
65826;DHT22;52586;-43.152;172.732;2022-09-02T11:17:41;18.50;52.90
65826;DHT22;52586;-43.152;172.732;2022-09-02T11:20:29;18.50;52.90
65826;DHT22;52586;-43.152;172.732;2022-09-02T11:23:05;18.50;52.90
65826;DHT22;52586;-43.152;172.732;2022-09-02T11:25:40;18.50;52.80
65826;DHT22;52586;-43.152;172.732;2022-09-02T11:28:26;18.50;52.90
65826;DHT22;52586;-43.152;172.732;2022-09-02T11:31:05;18.50;52.90
65826;DHT22;52586;-43.152;172.732;2022-09-02T11:33:45;18.50;52.90
65826;DHT22;52586;-43.152;172.732;2022-09-02T11:36:20;18.40;52.90
65826;DHT22;52586;-43.152;172.732;2022-09-02T11:38:53;18.40;53.00
65826;DHT22;52586;-43.152;172.732;2022-09-02T11:44:43;18.40;53.00
65826;DHT22;52586;-43.152;172.732;2022-09-02T11:47:38;18.40;52.90
65826;DHT22;52586;-43.152;172.732;2022-09-02T11:53:28;18.40;52.90
65826;DHT22;52586;-43.152;172.732;2022-09-02T11:56:02;18.40;52.80
65826;DHT22;52586;-43.152;172.732;2022-09-02T11:58:36;18.40;52.90
65826;DHT22;52586;-43.152;172.732;2022-09-02T12:01:21;18.40;52.90
65826;DHT22;52586;-43.152;172.732;2022-09-02T12:03:58;18.40;53.00
65826;DHT22;52586;-43.152;172.732;2022-09-02T12:06:30;18.40;53.00
65826;DHT22;52586;-43.152;172.732;2022-09-02T12:09:06;18.30;53.00
65826;DHT22;52586;-43.152;172.732;2022-09-02T12:11:50;18.30;53.00
65826;DHT22;52586;-43.152;172.732;2022-09-02T12:24:10;18.30;53.00
65826;DHT22;52586;-43.152;172.732;2022-09-02T12:27:03;18.30;53.00
65826;DHT22;52586;-43.152;172.732;2022-09-02T12:29:35;18.30;53.00
65826;DHT22;52586;-43.152;172.732;2022-09-02T12:32:08;18.30;53.00
65826;DHT22;52586;-43.152;172.732;2022-09-02T12:34:58;18.30;53.10
65826;DHT22;52586;-43.152;172.732;2022-09-02T12:37:53;18.20;53.10
65826;DHT22;52586;-43.152;172.732;2022-09-02T12:40:30;18.20;53.10
65826;DHT22;52586;-43.152;172.732;2022-09-02T12:43:05;18.20;53.10
65826;DHT22;52586;-43.152;172.732;2022-09-02T12:45:44;18.20;53.10
65826;DHT22;52586;-43.152;172.732;2022-09-02T12:48:17;18.20;53.10
65826;DHT22;52586;-43.152;172.732;2022-09-02T12:50:53;18.20;53.10
65826;DHT22;52586;-43.152;172.732;2022-09-02T12:53:35;18.20;53.10
65826;DHT22;52586;-43.152;172.732;2022-09-02T12:56:20;18.20;53.00
65826;DHT22;52586;-43.152;172.732;2022-09-02T12:58:56;18.20;53.00
65826;DHT22;52586;-43.152;172.732;2022-09-02T13:01:36;18.20;53.10
65826;DHT22;52586;-43.152;172.732;2022-09-02T13:04:25;18.20;53.10
65826;DHT22;52586;-43.152;172.732;2022-09-02T13:07:23;18.20;53.20
65826;DHT22;52586;-43.152;172.732;2022-09-02T13:10:20;18.10;53.10
65826;DHT22;52586;-43.152;172.732;2022-09-02T13:13:36;18.10;53.10
65826;DHT22;52586;-43.152;172.732;2022-09-02T13:16:14;18.10;53.20
65826;DHT22;52586;-43.152;172.732;2022-09-02T13:19:08;18.10;53.10
65826;DHT22;52586;-43.152;172.732;2022-09-02T13:25:25;18.10;53.10
65826;DHT22;52586;-43.152;172.732;2022-09-02T13:28:22;18.10;53.10
65826;DHT22;52586;-43.152;172.732;2022-09-02T13:31:10;18.10;53.10
65826;DHT22;52586;-43.152;172.732;2022-09-02T13:33:43;18.10;53.10
65826;DHT22;52586;-43.152;172.732;2022-09-02T13:36:23;18.10;53.20
65826;DHT22;52586;-43.152;172.732;2022-09-02T13:38:55;18.10;53.30
65826;DHT22;52586;-43.152;172.732;2022-09-02T13:41:30;18.00;53.20
65826;DHT22;52586;-43.152;172.732;2022-09-02T13:44:10;18.00;53.20
65826;DHT22;52586;-43.152;172.732;2022-09-02T13:46:45;18.00;53.20
65826;DHT22;52586;-43.152;172.732;2022-09-02T13:49:25;18.00;53.30
65826;DHT22;52586;-43.152;172.732;2022-09-02T13:51:56;18.00;53.20
65826;DHT22;52586;-43.152;172.732;2022-09-02T13:54:32;18.00;53.30
65826;DHT22;52586;-43.152;172.732;2022-09-02T13:57:05;18.00;53.20
65826;DHT22;52586;-43.152;172.732;2022-09-02T13:59:39;18.00;53.20
65826;DHT22;52586;-43.152;172.732;2022-09-02T14:02:30;18.00;53.20
65826;DHT22;52586;-43.152;172.732;2022-09-02T14:05:05;18.00;53.20
65826;DHT22;52586;-43.152;172.732;2022-09-02T14:07:39;18.00;53.20
65826;DHT22;52586;-43.152;172.732;2022-09-02T14:10:12;18.00;53.30
65826;DHT22;52586;-43.152;172.732;2022-09-02T14:12:45;18.00;53.30
65826;DHT22;52586;-43.152;172.732;2022-09-02T14:15:24;18.00;53.30
65826;DHT22;52586;-43.152;172.732;2022-09-02T14:18:14;18.00;53.30
65826;DHT22;52586;-43.152;172.732;2022-09-02T14:20:59;17.90;53.30
65826;DHT22;52586;-43.152;172.732;2022-09-02T14:23:31;18.00;53.30
65826;DHT22;52586;-43.152;172.732;2022-09-02T14:26:03;18.00;53.30
65826;DHT22;52586;-43.152;172.732;2022-09-02T14:28:34;18.00;53.30
65826;DHT22;52586;-43.152;172.732;2022-09-02T14:31:08;18.00;53.30
65826;DHT22;52586;-43.152;172.732;2022-09-02T14:33:52;18.00;53.30
65826;DHT22;52586;-43.152;172.732;2022-09-02T14:36:42;18.00;53.30
65826;DHT22;52586;-43.152;172.732;2022-09-02T14:39:18;18.00;53.40
65826;DHT22;52586;-43.152;172.732;2022-09-02T14:41:51;17.90;53.30
65826;DHT22;52586;-43.152;172.732;2022-09-02T14:44:24;17.90;53.40
65826;DHT22;52586;-43.152;172.732;2022-09-02T14:47:02;17.90;53.40
65826;DHT22;52586;-43.152;172.732;2022-09-02T14:49:35;17.90;53.40
65826;DHT22;52586;-43.152;172.732;2022-09-02T14:52:16;17.90;53.40
65826;DHT22;52586;-43.152;172.732;2022-09-02T14:54:48;17.90;53.40
65826;DHT22;52586;-43.152;172.732;2022-09-02T14:57:24;17.90;53.40
65826;DHT22;52586;-43.152;172.732;2022-09-02T15:00:00;17.90;53.40
65826;DHT22;52586;-43.152;172.732;2022-09-02T15:02:40;17.90;53.30
65826;DHT22;52586;-43.152;172.732;2022-09-02T15:05:13;17.90;53.30
65826;DHT22;52586;-43.152;172.732;2022-09-02T15:07:44;17.90;53.40
65826;DHT22;52586;-43.152;172.732;2022-09-02T15:10:15;17.90;53.40
65826;DHT22;52586;-43.152;172.732;2022-09-02T15:12:48;17.90;53.40
65826;DHT22;52586;-43.152;172.732;2022-09-02T15:15:19;17.90;53.40
65826;DHT22;52586;-43.152;172.732;2022-09-02T15:17:52;17.80;53.40
65826;DHT22;52586;-43.152;172.732;2022-09-02T15:20:28;17.80;53.40
65826;DHT22;52586;-43.152;172.732;2022-09-02T15:22:59;17.80;53.50
65826;DHT22;52586;-43.152;172.732;2022-09-02T15:25:30;17.80;53.40
65826;DHT22;52586;-43.152;172.732;2022-09-02T15:28:01;17.80;53.40
65826;DHT22;52586;-43.152;172.732;2022-09-02T15:30:37;17.80;53.40
65826;DHT22;52586;-43.152;172.732;2022-09-02T15:33:18;17.80;53.30
65826;DHT22;52586;-43.152;172.732;2022-09-02T15:36:01;17.80;53.40
65826;DHT22;52586;-43.152;172.732;2022-09-02T15:38:34;17.80;53.30
65826;DHT22;52586;-43.152;172.732;2022-09-02T15:41:12;17.80;53.40
65826;DHT22;52586;-43.152;172.732;2022-09-02T15:43:43;17.80;53.40
65826;DHT22;52586;-43.152;172.732;2022-09-02T15:46:22;17.70;53.40
65826;DHT22;52586;-43.152;172.732;2022-09-02T15:48:58;17.70;53.40
65826;DHT22;52586;-43.152;172.732;2022-09-02T15:51:29;17.70;53.50
65826;DHT22;52586;-43.152;172.732;2022-09-02T15:54:01;17.70;53.50
65826;DHT22;52586;-43.152;172.732;2022-09-02T15:56:34;17.70;53.50
65826;DHT22;52586;-43.152;172.732;2022-09-02T15:59:06;17.70;53.40
65826;DHT22;52586;-43.152;172.732;2022-09-02T16:01:39;17.70;53.40
65826;DHT22;52586;-43.152;172.732;2022-09-02T16:04:12;17.70;53.40
65826;DHT22;52586;-43.152;172.732;2022-09-02T16:06:44;17.70;53.30
65826;DHT22;52586;-43.152;172.732;2022-09-02T16:09:16;17.80;53.40
65826;DHT22;52586;-43.152;172.732;2022-09-02T16:11:48;17.70;53.40
65826;DHT22;52586;-43.152;172.732;2022-09-02T16:14:20;17.70;53.40
65826;DHT22;52586;-43.152;172.732;2022-09-02T16:16:51;17.70;54.00
65826;DHT22;52586;-43.152;172.732;2022-09-02T16:19:25;17.70;53.50
65826;DHT22;52586;-43.152;172.732;2022-09-02T16:21:56;17.70;53.50
65826;DHT22;52586;-43.152;172.732;2022-09-02T16:24:27;17.70;53.50
65826;DHT22;52586;-43.152;172.732;2022-09-02T16:26:58;17.70;53.50
65826;DHT22;52586;-43.152;172.732;2022-09-02T16:29:29;17.70;53.50
65826;DHT22;52586;-43.152;172.732;2022-09-02T16:31:59;17.70;53.50
65826;DHT22;52586;-43.152;172.732;2022-09-02T16:34:32;17.70;53.40
65826;DHT22;52586;-43.152;172.732;2022-09-02T16:37:02;17.70;53.40
65826;DHT22;52586;-43.152;172.732;2022-09-02T16:39:33;17.70;53.30
65826;DHT22;52586;-43.152;172.732;2022-09-02T16:42:04;17.70;53.30
65826;DHT22;52586;-43.152;172.732;2022-09-02T16:44:35;17.70;53.40
65826;DHT22;52586;-43.152;172.732;2022-09-02T16:47:08;17.70;53.40
65826;DHT22;52586;-43.152;172.732;2022-09-02T16:49:40;17.70;53.40
65826;DHT22;52586;-43.152;172.732;2022-09-02T16:52:12;17.70;53.40
65826;DHT22;52586;-43.152;172.732;2022-09-02T16:54:43;17.70;53.40
65826;DHT22;52586;-43.152;172.732;2022-09-02T16:57:14;17.70;53.40
65826;DHT22;52586;-43.152;172.732;2022-09-02T16:59:45;17.70;53.40
65826;DHT22;52586;-43.152;172.732;2022-09-02T17:02:16;17.70;53.40
65826;DHT22;52586;-43.152;172.732;2022-09-02T17:04:48;17.70;53.30
65826;DHT22;52586;-43.152;172.732;2022-09-02T17:07:19;17.70;53.30
65826;DHT22;52586;-43.152;172.732;2022-09-02T17:09:49;17.70;53.30
65826;DHT22;52586;-43.152;172.732;2022-09-02T17:12:20;17.70;53.40
65826;DHT22;52586;-43.152;172.732;2022-09-02T17:14:51;17.70;53.40
65826;DHT22;52586;-43.152;172.732;2022-09-02T17:17:21;17.70;53.40
65826;DHT22;52586;-43.152;172.732;2022-09-02T17:19:54;17.70;53.40
65826;DHT22;52586;-43.152;172.732;2022-09-02T17:22:25;17.70;53.40